Time;durP1;ratioP1;P1;durP2;ratioP2;P2;SDS_P1;SDS_P2;PMS_P1;PMS_P2;Temp;Humidity;BMP_temperature;BMP_pressure;BME280_temperature;BME280_humidity;BME280_pressure;Samples;Min_cycle;Max_cycle;Signal;HPM_P1;HPM_P2
2023/03/03 00:02:11;;;;;;;22.90;11.60;;;;;;;2.10;77.19;99027.53;105681;1257;74312;-26
2023/03/03 00:04:39;;;;;;;25.30;13.60;;;;;;;2.76;75.50;99031.26;105837;1254;74635;-25
2023/03/03 00:07:10;;;;;;;28.90;14.00;;;;;;;2.91;74.49;99029.99;105657;1256;74656;-25
2023/03/03 00:09:38;;;;;;;21.60;12.70;;;;;;;2.79;74.15;99029.53;105445;1260;62867;-26
2023/03/03 00:12:22;;;;;;;24.50;14.50;;;;;;;2.60;74.16;99027.06;105559;1257;61759;-25
2023/03/03 00:14:51;;;;;;;22.10;13.60;;;;;;;2.34;74.64;99025.87;105648;1254;75362;-26
2023/03/03 00:17:27;;;;;;;29.30;14.60;;;;;;;2.12;75.02;99020.41;105908;1256;74996;-25
2023/03/03 00:20:40;;;;;;;29.60;16.80;;;;;;;1.88;75.85;99019.65;105492;1254;71296;-25
2023/03/03 00:23:30;;;;;;;32.10;18.20;;;;;;;1.62;77.15;99017.89;105706;1256;61171;-25
2023/03/03 00:25:59;;;;;;;18.80;10.70;;;;;;;1.46;77.96;99015.52;105709;1254;61771;-25
2023/03/03 00:28:40;;;;;;;20.60;11.10;;;;;;;2.02;77.80;99013.34;105935;1253;75117;-25
2023/03/03 00:31:15;;;;;;;24.60;13.10;;;;;;;2.71;75.73;99007.48;105654;1258;75803;-25
2023/03/03 00:33:53;;;;;;;25.20;11.70;;;;;;;2.80;74.71;99007.89;105705;1254;74214;-25
2023/03/03 00:36:36;;;;;;;19.70;11.80;;;;;;;2.60;74.43;99004.75;105697;1253;61705;-25
2023/03/03 00:39:18;;;;;;;25.80;15.30;;;;;;;2.29;75.14;99000.27;105651;1259;61904;-25
2023/03/03 00:41:49;;;;;;;24.80;14.40;;;;;;;2.01;75.82;98995.73;105490;1253;75353;-26
2023/03/03 00:47:51;;;;;;;24.70;14.40;;;;;;;1.54;77.32;98993.45;105842;1257;73944;-25
2023/03/03 00:50:30;;;;;;;20.10;9.90;;;;;;;1.38;78.36;98989.38;105664;1258;61245;-25
2023/03/03 00:53:28;;;;;;;30.60;15.00;;;;;;;1.85;78.49;98985.36;105675;1261;61179;-25
2023/03/03 00:55:57;;;;;;;33.30;18.20;;;;;;;2.31;76.47;98978.73;105701;1259;75322;-25
2023/03/03 00:58:27;;;;;;;25.40;14.20;;;;;;;2.25;76.51;98978.67;105656;1257;75833;-26
2023/03/03 01:00:57;;;;;;;27.30;15.00;;;;;;;2.07;77.01;98976.98;105855;1252;73055;-25
2023/03/03 01:03:42;;;;;;;29.10;15.80;;;;;;;1.94;77.16;98978.42;105597;1254;61031;-25
2023/03/03 01:06:12;;;;;;;25.20;15.40;;;;;;;1.79;77.35;98973.29;105866;1253;61870;-25
2023/03/03 01:08:40;;;;;;;29.10;14.80;;;;;;;1.62;77.54;98970.29;105602;1253;75648;-25
2023/03/03 01:11:23;;;;;;;27.40;17.00;;;;;;;1.42;78.36;98968.46;105630;1253;75958;-25
2023/03/03 01:13:51;;;;;;;22.70;11.60;;;;;;;1.31;78.82;98968.30;105732;1258;72925;-25
2023/03/03 01:16:25;;;;;;;25.60;13.60;;;;;;;1.80;78.82;98970.70;105845;1253;62000;-25
2023/03/03 01:22:34;;;;;;;26.70;15.40;;;;;;;1.95;77.47;98960.91;105665;1253;75233;-26
2023/03/03 01:25:03;;;;;;;28.90;15.70;;;;;;;1.65;78.61;98961.81;105821;1253;75886;-25
2023/03/03 01:27:33;;;;;;;30.70;17.80;;;;;;;1.47;79.35;98965.52;105718;1253;72916;-25
2023/03/03 01:30:05;;;;;;;30.40;18.40;;;;;;;1.29;80.16;98962.19;105618;1261;61203;-25
2023/03/03 01:32:34;;;;;;;32.90;17.90;;;;;;;1.04;81.35;98960.40;105622;1260;61680;-25
2023/03/03 01:35:04;;;;;;;23.40;13.70;;;;;;;0.83;82.59;98955.82;105730;1254;75342;-25
2023/03/03 01:37:34;;;;;;;36.50;18.20;;;;;;;1.41;81.09;98950.38;105373;1260;76214;-25
2023/03/03 01:40:05;;;;;;;28.20;13.90;;;;;;;1.94;78.90;98950.35;105221;1252;74341;-26
2023/03/03 01:42:33;;;;;;;25.80;14.60;;;;;;;1.99;77.87;98950.83;105568;1254;61071;-25
2023/03/03 01:45:22;;;;;;;23.30;14.80;;;;;;;1.84;77.83;98953.72;105863;1254;61575;-24
2023/03/03 01:48:04;;;;;;;28.90;15.10;;;;;;;1.53;78.61;98946.76;105724;1254;74374;-25
2023/03/03 01:50:53;;;;;;;25.10;15.20;;;;;;;1.35;79.01;98943.83;105650;1254;75712;-25
2023/03/03 01:53:31;;;;;;;27.70;16.90;;;;;;;1.12;79.79;98938.48;105649;1253;73743;-25
2023/03/03 01:56:00;;;;;;;20.30;10.70;;;;;;;1.05;80.67;98940.88;105577;1260;62786;-25
2023/03/03 01:58:53;;;;;;;22.90;12.10;;;;;;;1.78;79.16;98942.34;105871;1258;61214;-25
2023/03/03 02:01:23;;;;;;;33.90;17.70;;;;;;;2.38;76.16;98941.72;105719;1253;77775;-25
2023/03/03 02:03:54;;;;;;;22.60;11.20;;;;;;;2.33;75.06;98939.06;105731;1258;76208;-26
2023/03/03 02:06:37;;;;;;;23.70;12.40;;;;;;;2.13;75.47;98939.54;105867;1253;74217;-25
2023/03/03 02:09:28;;;;;;;22.90;14.10;;;;;;;1.86;76.31;98940.96;105738;1254;61189;-25
2023/03/03 02:11:59;;;;;;;23.70;13.60;;;;;;;1.61;77.11;98941.11;105752;1254;61056;-25
2023/03/03 02:14:28;;;;;;;24.20;13.80;;;;;;;1.40;77.66;98931.11;105508;1252;75218;-25
2023/03/03 02:16:57;;;;;;;23.70;13.70;;;;;;;1.24;78.13;98929.42;105728;1253;75876;-24
2023/03/03 02:19:51;;;;;;;20.80;12.10;;;;;;;1.11;78.36;98926.90;105889;1256;73262;-25
2023/03/03 02:22:30;;;;;;;13.50;6.60;;;;;;;1.06;78.54;98918.09;105675;1253;61755;-25
2023/03/03 02:25:02;;;;;;;21.40;10.00;;;;;;;1.74;78.25;98916.85;105652;1260;61892;-26
2023/03/03 02:27:31;;;;;;;22.90;13.50;;;;;;;2.39;76.56;98918.20;105576;1261;75320;-25
2023/03/03 02:30:15;;;;;;;22.70;13.20;;;;;;;2.53;75.59;98912.22;103823;1253;2019998;-25
2023/03/03 02:32:43;;;;;;;;;;;;;;;2.40;75.13;98910.14;105543;1254;72137;-25
2023/03/03 02:35:31;;;;;;;17.30;9.00;;;;;;;2.19;75.24;98905.84;105639;1253;61083;-25
2023/03/03 02:38:41;;;;;;;20.90;12.40;;;;;;;1.83;75.86;98903.11;105685;1253;60986;-25
2023/03/03 02:41:28;;;;;;;22.40;12.60;;;;;;;1.50;76.56;98903.98;105638;1253;75400;-25
2023/03/03 02:43:57;;;;;;;27.80;13.50;;;;;;;1.25;77.41;98905.95;105865;1253;75853;-25
2023/03/03 02:46:28;;;;;;;25.40;13.10;;;;;;;1.06;78.19;98901.85;105847;1257;73939;-25
2023/03/03 02:48:57;;;;;;;16.20;8.60;;;;;;;0.92;78.95;98902.62;105689;1253;61857;-25
2023/03/03 02:51:25;;;;;;;17.30;10.40;;;;;;;1.38;79.27;98900.23;105593;1258;61899;-25
2023/03/03 02:53:54;;;;;;;20.50;10.30;;;;;;;1.98;77.91;98901.52;105922;1253;75363;-26
2023/03/03 02:56:24;;;;;;;18.70;10.90;;;;;;;2.07;76.81;98900.93;105905;1257;74829;-25
2023/03/03 02:58:52;;;;;;;20.50;12.00;;;;;;;1.83;76.86;98900.70;105875;1253;74017;-25
2023/03/03 03:01:23;;;;;;;19.20;11.70;;;;;;;1.58;77.38;98893.02;105684;1257;61267;-26
2023/03/03 03:03:52;;;;;;;25.10;13.00;;;;;;;1.32;78.08;98887.17;105749;1257;61864;-25
2023/03/03 03:06:23;;;;;;;19.10;11.50;;;;;;;1.05;79.02;98882.55;105834;1253;75388;-25
2023/03/03 03:08:54;;;;;;;19.90;11.40;;;;;;;0.84;79.73;98885.86;105863;1256;73916;-25
2023/03/03 03:11:22;;;;;;;12.80;7.70;;;;;;;0.68;80.85;98883.50;105896;1253;74223;-25
2023/03/03 03:13:52;;;;;;;16.50;9.40;;;;;;;1.21;80.44;98876.20;105547;1253;61081;-26
2023/03/03 03:16:21;;;;;;;17.10;10.20;;;;;;;1.83;78.16;98885.14;105568;1257;61858;-25
2023/03/03 03:18:50;;;;;;;17.40;10.80;;;;;;;1.87;77.09;98886.47;105549;1253;75249;-25
2023/03/03 03:21:19;;;;;;;19.70;10.60;;;;;;;1.69;77.02;98878.27;105599;1257;75936;-26
2023/03/03 03:23:48;;;;;;;18.60;10.70;;;;;;;1.47;77.60;98871.27;105588;1253;74666;-25
2023/03/03 03:26:19;;;;;;;13.50;8.00;;;;;;;1.24;78.03;98873.52;105588;1253;61076;-25
2023/03/03 03:28:52;;;;;;;15.90;10.30;;;;;;;0.91;79.26;98871.21;105713;1257;61839;-25
2023/03/03 03:31:28;;;;;;;17.30;10.90;;;;;;;0.73;79.67;98866.00;105534;1253;75527;-25
2023/03/03 03:33:56;;;;;;;11.70;6.30;;;;;;;0.66;79.76;98870.60;105474;1258;75741;-25
2023/03/03 03:36:27;;;;;;;20.50;9.00;;;;;;;1.12;79.83;98867.69;105854;1253;74258;-25
2023/03/03 03:39:16;;;;;;;18.80;9.60;;;;;;;1.80;78.03;98868.34;105431;1259;62934;-25
2023/03/03 03:41:46;;;;;;;18.90;10.60;;;;;;;1.82;77.23;98863.27;105714;1256;61351;-25
2023/03/03 03:44:15;;;;;;;17.70;10.40;;;;;;;1.62;77.41;98854.27;105635;1253;75346;-25
2023/03/03 03:46:43;;;;;;;21.80;12.10;;;;;;;1.42;77.60;98854.20;105761;1254;76019;-25
2023/03/03 03:49:12;;;;;;;23.20;13.00;;;;;;;1.17;78.37;98854.34;105843;1253;73482;-26
2023/03/03 03:51:41;;;;;;;27.10;13.60;;;;;;;0.97;78.87;98850.93;105673;1254;61418;-26
2023/03/03 03:54:12;;;;;;;26.30;14.00;;;;;;;0.79;79.38;98848.69;105885;1253;61034;-25
2023/03/03 03:56:42;;;;;;;17.90;9.40;;;;;;;0.64;80.40;98845.89;105803;1257;75020;-25
2023/03/03 03:59:10;;;;;;;19.90;11.50;;;;;;;1.23;79.74;98841.41;105765;1256;76378;-25
2023/03/03 04:01:40;;;;;;;21.40;11.70;;;;;;;1.86;77.74;98844.27;105649;1253;73290;-25
2023/03/03 04:04:08;;;;;;;17.40;9.50;;;;;;;1.93;76.84;98838.45;105617;1253;61974;-26
2023/03/03 04:06:37;;;;;;;22.50;12.80;;;;;;;1.75;76.69;98829.21;105685;1253;61672;-25
2023/03/03 04:09:08;;;;;;;20.00;12.70;;;;;;;1.50;77.26;98824.40;105579;1253;75089;-25
2023/03/03 04:11:36;;;;;;;25.90;14.20;;;;;;;1.26;77.97;98825.16;105615;1257;73552;-25
2023/03/03 04:14:06;;;;;;;26.30;13.80;;;;;;;1.03;78.68;98819.05;105714;1257;71987;-25
2023/03/03 04:16:38;;;;;;;24.60;14.80;;;;;;;0.82;79.41;98815.90;105646;1254;61173;-25
2023/03/03 04:19:07;;;;;;;16.20;9.50;;;;;;;0.67;80.13;98813.80;105822;1253;61058;-25
2023/03/03 04:21:37;;;;;;;19.90;11.10;;;;;;;1.17;79.99;98814.83;105803;1254;75094;-25
2023/03/03 04:24:06;;;;;;;20.90;12.10;;;;;;;1.75;78.11;98815.49;105745;1254;75550;-25
2023/03/03 04:26:34;;;;;;;22.70;12.20;;;;;;;1.84;77.10;98809.08;105647;1254;73164;-25
2023/03/03 04:29:04;;;;;;;22.00;13.00;;;;;;;1.69;77.01;98799.71;105532;1259;61221;-26
2023/03/03 04:31:32;;;;;;;22.80;13.50;;;;;;;1.47;77.38;98795.79;105631;1254;61864;-25
2023/03/03 04:34:02;;;;;;;24.40;13.70;;;;;;;1.24;77.76;98791.74;105582;1254;75092;-25
2023/03/03 04:36:31;;;;;;;25.90;14.60;;;;;;;1.05;78.33;98790.58;105619;1254;75641;-25
2023/03/03 04:39:01;;;;;;;27.40;14.30;;;;;;;0.86;79.12;98785.97;105728;1254;74334;-25
2023/03/03 04:41:30;;;;;;;25.10;14.40;;;;;;;0.72;79.21;98784.05;105790;1254;61113;-26
2023/03/03 04:43:59;;;;;;;15.00;8.90;;;;;;;0.61;79.65;98782.63;105721;1259;61686;-25
2023/03/03 04:46:28;;;;;;;27.00;12.60;;;;;;;1.14;79.93;98782.98;105750;1254;75342;-25
2023/03/03 04:48:59;;;;;;;24.00;12.30;;;;;;;1.74;77.39;98785.42;105802;1257;75137;-26
2023/03/03 04:51:28;;;;;;;22.90;12.60;;;;;;;1.83;76.51;98787.91;105831;1254;74154;-25
2023/03/03 04:53:56;;;;;;;23.70;12.10;;;;;;;1.71;76.47;98784.57;105760;1254;61905;-26
2023/03/03 04:56:30;;;;;;;23.00;12.90;;;;;;;1.51;76.72;98783.64;105698;1259;61683;-25
2023/03/03 04:59:00;;;;;;;27.00;14.20;;;;;;;1.28;77.36;98787.12;105701;1259;75354;-25
2023/03/03 05:01:28;;;;;;;24.90;14.50;;;;;;;1.06;78.25;98780.48;105718;1254;74854;-25
2023/03/03 05:03:58;;;;;;;24.50;14.80;;;;;;;0.86;78.99;98781.03;105633;1254;74197;-25
2023/03/03 05:06:27;;;;;;;18.90;9.10;;;;;;;0.69;79.97;98779.20;105761;1260;61708;-26
2023/03/03 05:08:57;;;;;;;18.90;10.50;;;;;;;1.22;79.81;98782.41;105773;1257;61231;-25
2023/03/03 05:11:26;;;;;;;19.10;9.80;;;;;;;1.92;78.05;98784.55;105823;1254;75311;-26
2023/03/03 05:14:02;;;;;;;19.50;11.00;;;;;;;2.01;76.61;98788.20;105784;1254;75870;-26
2023/03/03 05:16:30;;;;;;;20.00;11.50;;;;;;;1.71;76.19;98789.68;105820;1253;74191;-25
2023/03/03 05:18:59;;;;;;;16.80;8.90;;;;;;;1.39;77.15;98783.52;105796;1253;61129;-26
2023/03/03 05:21:28;;;;;;;23.20;12.40;;;;;;;1.13;78.13;98779.27;105905;1254;61960;-26
2023/03/03 05:23:57;;;;;;;20.40;12.00;;;;;;;0.95;78.64;98774.09;105746;1252;75164;-25
2023/03/03 05:26:26;;;;;;;29.60;14.10;;;;;;;0.80;79.23;98775.33;105548;1253;75650;-25
2023/03/03 05:28:54;;;;;;;13.70;7.60;;;;;;;0.70;79.75;98769.44;105735;1253;73847;-25
2023/03/03 05:31:25;;;;;;;17.20;9.20;;;;;;;1.22;79.50;98768.21;105583;1253;61076;-26
2023/03/03 05:33:54;;;;;;;20.70;11.20;;;;;;;1.87;77.45;98772.32;105609;1253;61117;-26
2023/03/03 05:36:23;;;;;;;16.90;10.20;;;;;;;1.96;76.28;98767.23;105566;1252;75375;-26
2023/03/03 05:38:52;;;;;;;18.30;10.00;;;;;;;1.81;75.82;98767.46;105789;1253;75799;-25
2023/03/03 05:41:21;;;;;;;19.00;11.30;;;;;;;1.59;76.05;98768.90;105704;1253;74082;-25
2023/03/03 05:43:50;;;;;;;20.50;12.90;;;;;;;1.33;76.63;98763.10;105483;1253;61117;-26
2023/03/03 05:46:18;;;;;;;21.10;11.30;;;;;;;1.13;77.50;98763.70;105718;1253;61060;-26
2023/03/03 05:48:47;;;;;;;21.00;11.70;;;;;;;0.95;78.07;98760.78;105889;1253;75200;-25
2023/03/03 05:51:15;;;;;;;22.20;12.30;;;;;;;0.82;78.81;98761.05;105672;1258;75968;-25
2023/03/03 05:53:44;;;;;;;17.50;9.90;;;;;;;1.18;78.40;98756.61;105796;1253;74339;-25
2023/03/03 05:56:13;;;;;;;23.40;11.90;;;;;;;1.71;76.80;98759.71;105625;1253;61857;-25
2023/03/03 05:58:43;;;;;;;21.80;13.00;;;;;;;1.79;75.75;98758.48;105880;1257;61659;-25
2023/03/03 06:01:12;;;;;;;19.60;11.30;;;;;;;1.67;76.17;98758.23;105834;1253;75446;-25
2023/03/03 06:03:40;;;;;;;18.80;11.00;;;;;;;1.48;76.41;98752.48;105847;1256;75953;-25
2023/03/03 06:06:11;;;;;;;22.10;13.30;;;;;;;1.24;76.75;98752.09;105845;1257;74025;-25
2023/03/03 06:08:39;;;;;;;24.50;12.40;;;;;;;1.04;77.59;98750.42;105692;1253;61171;-25
2023/03/03 06:11:15;;;;;;;27.10;13.60;;;;;;;0.85;78.62;98748.41;105510;1258;61162;-26
2023/03/03 06:14:03;;;;;;;18.50;9.20;;;;;;;0.82;79.04;98748.38;105659;1257;76323;-25
2023/03/03 06:16:34;;;;;;;21.40;11.50;;;;;;;1.51;78.29;98752.66;105883;1253;75643;-25
2023/03/03 06:19:02;;;;;;;24.50;12.60;;;;;;;2.02;76.06;98754.08;105636;1252;73924;-25
2023/03/03 06:21:32;;;;;;;23.40;12.20;;;;;;;2.03;75.10;98755.77;105605;1257;61062;-25
2023/03/03 06:24:01;;;;;;;25.60;13.20;;;;;;;1.82;75.33;98755.41;105848;1253;61103;-25
2023/03/03 06:26:31;;;;;;;25.60;12.70;;;;;;;1.62;76.02;98749.75;105895;1253;75140;-25
2023/03/03 06:28:59;;;;;;;24.70;14.10;;;;;;;1.35;77.00;98746.92;105679;1254;75824;-25
2023/03/03 06:31:28;;;;;;;28.10;15.30;;;;;;;1.17;77.75;98750.02;105756;1253;73965;-25
2023/03/03 06:33:56;;;;;;;23.50;14.20;;;;;;;1.02;78.40;98749.67;105807;1253;61084;-26
2023/03/03 06:36:27;;;;;;;16.30;9.60;;;;;;;0.93;78.92;98750.78;105526;1257;62173;-25
2023/03/03 06:38:56;;;;;;;20.90;11.00;;;;;;;1.42;78.66;98753.96;105754;1253;75355;-25
2023/03/03 06:41:25;;;;;;;20.00;12.90;;;;;;;2.00;76.54;98752.99;105646;1258;73824;-25
2023/03/03 06:43:54;;;;;;;22.50;12.70;;;;;;;2.06;75.64;98751.85;105608;1258;74223;-25
2023/03/03 06:46:22;;;;;;;25.50;13.60;;;;;;;1.95;75.58;98752.88;105616;1253;61820;-26
2023/03/03 06:48:51;;;;;;;22.00;12.50;;;;;;;1.76;76.12;98752.81;105811;1254;61949;-25
2023/03/03 06:51:30;;;;;;;30.20;16.30;;;;;;;1.56;76.66;98745.23;105638;1257;75270;-25
2023/03/03 06:54:17;;;;;;;24.00;14.30;;;;;;;1.33;77.46;98745.80;105529;1252;75640;-25
2023/03/03 06:56:46;;;;;;;26.20;13.40;;;;;;;1.18;78.15;98743.46;105696;1254;73554;-26
2023/03/03 06:59:17;;;;;;;16.30;9.60;;;;;;;1.11;78.38;98742.80;105882;1253;63143;-25
2023/03/03 07:01:49;;;;;;;25.20;12.10;;;;;;;1.66;77.96;98744.77;105669;1259;61899;-25
2023/03/03 07:04:32;;;;;;;27.30;12.90;;;;;;;2.29;76.20;98740.57;105395;1253;76172;-26
2023/03/03 07:07:14;;;;;;;29.40;13.80;;;;;;;2.39;74.88;98738.29;105453;1260;74688;-25
2023/03/03 07:09:43;;;;;;;25.50;13.80;;;;;;;2.23;74.96;98739.50;105584;1258;73143;-26
2023/03/03 07:12:21;;;;;;;22.70;13.90;;;;;;;1.98;75.04;98735.43;105273;1253;61111;-26
2023/03/03 07:15:10;;;;;;;28.90;15.10;;;;;;;1.71;75.90;98733.42;105558;1258;62052;-26
2023/03/03 07:17:42;;;;;;;28.70;15.30;;;;;;;1.57;76.80;98732.89;105557;1253;75339;-26
2023/03/03 07:20:18;;;;;;;25.40;14.00;;;;;;;1.40;77.34;98734.36;105554;1258;75649;-26
2023/03/03 07:22:47;;;;;;;21.20;11.70;;;;;;;1.31;77.88;98731.05;105651;1253;73141;-26
2023/03/03 07:25:28;;;;;;;20.00;12.40;;;;;;;1.80;77.22;98730.52;105840;1253;61150;-26
2023/03/03 07:28:11;;;;;;;21.90;12.30;;;;;;;2.33;75.28;98731.79;105706;1252;61098;-26
2023/03/03 07:30:39;;;;;;;24.60;13.70;;;;;;;2.36;74.28;98730.60;105550;1253;75431;-26
2023/03/03 07:33:27;;;;;;;19.10;11.40;;;;;;;2.23;74.50;98728.02;105607;1253;75827;-26
2023/03/03 07:35:57;;;;;;;24.90;12.60;;;;;;;1.94;75.04;98724.52;105291;1260;73740;-26
2023/03/03 07:38:42;;;;;;;23.40;14.40;;;;;;;1.73;75.70;98722.65;105655;1259;61197;-26
2023/03/03 07:41:13;;;;;;;27.30;14.20;;;;;;;1.56;76.86;98719.75;105699;1260;61273;-26
2023/03/03 07:43:49;;;;;;;23.90;12.10;;;;;;;1.48;77.80;98713.79;105515;1260;74088;-26
2023/03/03 07:46:26;;;;;;;24.40;11.70;;;;;;;1.97;76.53;98713.09;105725;1260;73707;-26
2023/03/03 07:48:57;;;;;;;20.80;11.40;;;;;;;2.23;75.01;98710.21;105687;1258;74190;-26
2023/03/03 07:51:31;;;;;;;22.80;13.10;;;;;;;2.26;74.41;98710.88;105582;1261;61168;-26
2023/03/03 07:54:31;;;;;;;30.10;16.00;;;;;;;2.11;74.84;98708.77;105653;1258;61689;-26
2023/03/03 07:57:35;;;;;;;25.50;12.90;;;;;;;1.79;75.77;98709.53;105852;1253;75308;-26
2023/03/03 08:00:14;;;;;;;;;;;;;;;1.54;76.09;98705.65;105681;1253;75802;-26
2023/03/03 08:03:03;;;;;;;18.70;9.50;;;;;;;1.29;77.21;98704.63;105679;1253;73647;-26
2023/03/03 08:05:35;;;;;;;17.00;9.40;;;;;;;1.70;76.67;98706.90;105646;1253;61145;-27
2023/03/03 08:08:15;;;;;;;25.50;13.60;;;;;;;2.25;75.27;98710.29;105643;1260;61767;-25
2023/03/03 08:10:47;;;;;;;24.80;13.60;;;;;;;2.41;74.72;98712.89;105667;1253;74164;-25
2023/03/03 08:13:39;;;;;;;21.90;12.60;;;;;;;2.32;74.46;98709.23;105853;1257;76010;-24
2023/03/03 08:16:10;;;;;;;24.80;12.60;;;;;;;2.10;74.57;98706.60;105693;1254;73201;-26
2023/03/03 08:18:49;;;;;;;23.30;14.40;;;;;;;1.93;75.60;98704.02;105698;1254;61118;-26
2023/03/03 08:21:22;;;;;;;23.00;10.60;;;;;;;1.66;76.14;98701.11;105713;1259;61074;-26
2023/03/03 08:23:52;;;;;;;21.00;12.90;;;;;;;1.59;76.59;98701.82;105680;1259;74328;-25
2023/03/03 08:26:23;;;;;;;25.90;14.10;;;;;;;1.86;75.96;98704.20;105624;1258;75275;-26
2023/03/03 08:28:52;;;;;;;22.40;13.80;;;;;;;1.95;75.47;98708.35;105497;1254;73238;-26
2023/03/03 08:31:22;;;;;;;27.30;14.80;;;;;;;2.04;74.56;98703.98;105773;1253;61519;-25
2023/03/03 08:34:08;;;;;;;25.50;13.00;;;;;;;2.00;74.76;98706.76;105762;1259;61950;-25
2023/03/03 08:36:41;;;;;;;24.80;13.90;;;;;;;1.94;75.18;98707.73;105717;1254;75268;-25
2023/03/03 08:39:10;;;;;;;29.90;16.20;;;;;;;1.68;76.03;98703.26;105818;1254;75128;-25
2023/03/03 08:41:42;;;;;;;29.60;15.10;;;;;;;1.59;76.51;98704.67;105762;1254;74133;-25
2023/03/03 08:44:11;;;;;;;22.80;12.00;;;;;;;1.44;77.12;98703.56;105697;1254;62511;-25
2023/03/03 08:46:39;;;;;;;25.20;13.80;;;;;;;1.89;76.40;98708.16;105504;1259;61592;-25
2023/03/03 08:49:12;;;;;;;20.30;11.40;;;;;;;2.35;73.80;98704.77;105652;1254;75233;-25
2023/03/03 08:51:41;;;;;;;22.00;11.90;;;;;;;2.23;73.64;98707.48;105645;1254;75801;-26
2023/03/03 08:54:10;;;;;;;21.30;12.10;;;;;;;2.05;74.01;98701.00;105819;1254;74080;-26
2023/03/03 08:56:40;;;;;;;21.60;12.80;;;;;;;1.88;74.32;98699.67;105818;1254;61113;-26
2023/03/03 08:59:10;;;;;;;15.60;9.30;;;;;;;1.83;74.72;98698.36;105801;1258;61783;-25
2023/03/03 09:01:39;;;;;;;19.30;11.80;;;;;;;1.78;73.65;98694.01;105798;1259;75281;-25
2023/03/03 09:04:07;;;;;;;15.60;9.90;;;;;;;1.66;74.96;98693.56;105794;1254;75696;-25
2023/03/03 09:06:36;;;;;;;11.80;7.20;;;;;;;1.72;74.93;98689.20;105701;1254;74002;-25
2023/03/03 09:09:06;;;;;;;21.90;12.40;;;;;;;2.28;72.31;98688.03;105615;1254;61103;-25
2023/03/03 09:11:35;;;;;;;16.50;8.90;;;;;;;2.50;71.54;98691.32;105652;1259;61808;-25
2023/03/03 09:14:15;;;;;;;14.50;8.30;;;;;;;2.59;71.24;98688.39;105607;1258;73594;-25
2023/03/03 09:16:49;;;;;;;15.50;7.70;;;;;;;2.45;71.54;98686.10;105654;1259;76035;-25
2023/03/03 09:19:34;;;;;;;13.50;8.70;;;;;;;2.43;71.11;98680.52;105761;1258;72789;-24
2023/03/03 09:22:18;;;;;;;16.00;8.00;;;;;;;2.33;71.79;98683.48;105707;1254;61105;-24
2023/03/03 09:24:48;;;;;;;18.60;10.40;;;;;;;2.11;72.52;98682.41;105694;1254;61544;-25
2023/03/03 09:27:24;;;;;;;18.60;10.70;;;;;;;1.98;72.78;98679.10;105734;1259;75134;-25
2023/03/03 09:29:52;;;;;;;16.70;10.00;;;;;;;1.85;73.09;98678.61;105728;1254;74869;-25
2023/03/03 09:32:33;;;;;;;13.40;7.10;;;;;;;1.88;73.40;98672.78;105842;1254;74143;-25
2023/03/03 09:35:36;;;;;;;11.70;7.30;;;;;;;2.45;71.96;98670.16;105682;1254;61002;-27
2023/03/03 09:38:23;;;;;;;13.90;8.20;;;;;;;2.90;69.44;98669.10;105687;1254;61092;-25
2023/03/03 09:40:58;;;;;;;12.00;6.80;;;;;;;2.54;69.63;98670.85;105843;1253;75368;-25
2023/03/03 09:43:36;;;;;;;12.60;6.70;;;;;;;2.41;69.93;98669.64;105723;1254;75827;-25
2023/03/03 09:46:26;;;;;;;17.80;7.50;;;;;;;2.35;70.94;98673.08;105680;1259;74195;-25
2023/03/03 09:49:06;;;;;;;12.40;6.90;;;;;;;2.15;70.69;98668.80;105844;1253;61165;-25
2023/03/03 09:51:34;;;;;;;11.30;6.60;;;;;;;2.13;71.08;98670.48;105702;1259;61102;-25
2023/03/03 09:54:24;;;;;;;10.40;6.70;;;;;;;1.90;71.91;98665.65;105885;1253;73664;-25
2023/03/03 09:57:22;;;;;;;9.60;6.00;;;;;;;1.65;71.04;98657.02;105735;1254;74837;-25
2023/03/03 10:00:04;;;;;;;11.30;5.30;;;;;;;1.62;71.38;98658.87;105815;1254;73752;-25
2023/03/03 10:03:14;;;;;;;11.40;5.80;;;;;;;1.54;71.56;98658.45;105730;1254;61105;-25
2023/03/03 10:05:48;;;;;;;7.30;3.80;;;;;;;1.77;71.22;98655.70;105770;1258;61578;-25
2023/03/03 10:08:35;;;;;;;9.50;4.40;;;;;;;2.52;69.93;98655.18;105608;1254;75419;-25
2023/03/03 10:11:09;;;;;;;9.10;4.90;;;;;;;2.82;69.11;98648.94;105692;1254;75888;-25
2023/03/03 10:14:17;;;;;;;12.90;5.40;;;;;;;2.80;68.75;98645.96;105560;1254;73960;-25
2023/03/03 10:16:58;;;;;;;11.80;6.30;;;;;;;2.59;69.37;98640.94;105344;1256;61134;-26
2023/03/03 10:19:37;;;;;;;11.80;5.90;;;;;;;2.46;69.73;98636.50;105593;1260;61968;-25
2023/03/03 10:22:27;;;;;;;12.80;6.30;;;;;;;2.27;70.84;98636.53;105503;1254;75404;-25
2023/03/03 10:25:13;;;;;;;10.00;6.00;;;;;;;2.23;71.33;98638.92;105496;1259;75756;-25
2023/03/03 10:28:01;;;;;;;13.50;7.10;;;;;;;2.07;71.32;98632.77;105538;1254;73017;-25
2023/03/03 10:30:52;;;;;;;13.30;6.60;;;;;;;2.12;71.87;98626.34;105503;1254;62754;-24
2023/03/03 10:34:11;;;;;;;9.90;5.70;;;;;;;2.67;70.53;98627.97;105574;1259;61832;-27
2023/03/03 10:36:58;;;;;;;9.30;5.60;;;;;;;2.91;68.45;98613.80;105691;1254;74037;-25
2023/03/03 10:39:43;;;;;;;12.30;6.60;;;;;;;2.71;68.60;98615.60;105508;1259;75858;-25
2023/03/03 10:42:14;;;;;;;16.90;7.60;;;;;;;2.56;69.32;98613.16;105677;1254;73232;-25
2023/03/03 10:44:52;;;;;;;10.60;6.20;;;;;;;2.38;69.94;98612.59;105864;1254;60985;-25
2023/03/03 10:47:43;;;;;;;11.70;6.20;;;;;;;2.21;70.35;98604.27;105491;1259;61157;-25
2023/03/03 10:50:27;;;;;;;14.50;7.50;;;;;;;2.03;71.54;98609.19;105762;1254;75013;-25
2023/03/03 10:53:26;;;;;;;13.40;7.60;;;;;;;1.88;72.20;98611.85;105687;1254;75887;-25
2023/03/03 10:56:13;;;;;;;12.00;6.80;;;;;;;1.91;72.44;98609.30;105851;1254;74250;-25
2023/03/03 10:58:45;;;;;;;9.50;6.00;;;;;;;2.30;70.94;98603.80;105713;1254;61132;-25
2023/03/03 11:01:55;;;;;;;12.40;7.80;;;;;;;2.38;70.72;98607.30;105683;1254;61065;-26
2023/03/03 11:04:27;;;;;;;21.30;10.10;;;;;;;2.09;71.24;98606.92;105799;1258;75292;-25
2023/03/03 11:07:33;;;;;;;14.00;8.70;;;;;;;2.03;71.74;98599.58;105717;1260;75065;-25
2023/03/03 11:10:34;;;;;;;21.30;9.60;;;;;;;1.81;72.10;98598.17;105728;1254;74006;-25
2023/03/03 11:13:38;;;;;;;13.90;7.80;;;;;;;1.65;73.14;98597.43;105695;1254;61820;-25
2023/03/03 11:16:31;;;;;;;15.90;8.80;;;;;;;1.37;73.15;98582.98;105309;1259;61883;-26
2023/03/03 11:19:37;;;;;;;17.70;11.50;;;;;;;1.66;72.51;98581.30;105888;1253;75566;-26
2023/03/03 11:22:49;;;;;;;14.50;8.80;;;;;;;1.95;71.07;98577.39;105860;1253;75852;-25
2023/03/03 11:25:33;;;;;;;15.70;8.70;;;;;;;1.81;70.61;98573.36;105740;1253;74371;-25
2023/03/03 11:28:17;;;;;;;19.10;10.60;;;;;;;1.68;71.62;98577.80;105707;1253;61111;-25
2023/03/03 11:31:27;;;;;;;16.50;9.60;;;;;;;1.52;73.34;98579.30;105603;1257;61173;-25
2023/03/03 11:34:34;;;;;;;26.60;11.70;;;;;;;1.33;73.48;98571.03;105612;1259;75674;-25
2023/03/03 11:37:07;;;;;;;26.20;13.60;;;;;;;1.11;74.56;98565.48;105220;1260;75585;-25
2023/03/03 11:39:36;;;;;;;31.40;14.50;;;;;;;1.12;74.97;98566.45;105345;1253;74421;-26
2023/03/03 11:42:17;;;;;;;22.10;11.90;;;;;;;1.62;73.49;98569.21;105370;1254;61090;-26
2023/03/03 11:44:50;;;;;;;22.30;10.10;;;;;;;1.84;72.33;98565.45;105573;1252;61170;-26
2023/03/03 11:47:41;;;;;;;23.30;13.30;;;;;;;1.75;72.41;98564.10;105395;1259;75340;-26
2023/03/03 11:50:31;;;;;;;21.40;12.00;;;;;;;1.64;72.48;98560.58;105692;1254;75942;-26
2023/03/03 11:53:17;;;;;;;25.10;12.40;;;;;;;1.32;72.93;98550.06;105520;1258;74212;-25
2023/03/03 11:55:48;;;;;;;17.10;9.90;;;;;;;1.20;73.48;98547.59;105414;1253;61006;-25
2023/03/03 11:58:19;;;;;;;17.30;10.00;;;;;;;1.08;73.94;98545.95;105371;1259;61631;-25
2023/03/03 12:00:59;;;;;;;17.10;9.70;;;;;;;1.11;74.10;98545.13;105489;1258;74094;-25
2023/03/03 12:03:34;;;;;;;;;;;;;;;1.72;72.31;98551.92;105483;1259;75989;-25
2023/03/03 12:06:23;;;;;;;20.30;8.80;;;;;;;1.88;71.26;98544.18;105700;1257;73155;-25
2023/03/03 12:09:11;;;;;;;15.70;8.80;;;;;;;1.93;70.96;98543.98;105717;1253;61536;-25